Time;durP1;ratioP1;P1;durP2;ratioP2;P2;SDS_P1;SDS_P2;PMS_P1;PMS_P2;Temp;Humidity;BMP_temperature;BMP_pressure;BME280_temperature;BME280_humidity;BME280_pressure;Samples;Min_cycle;Max_cycle;Signal;HPM_P1;HPM_P2
2022/09/03 00:02:21;;;;;;;5.90;2.70;;;18.80;1.10;;;;;;5022422;28;20422;-83
2022/09/03 00:05:05;;;;;;;3.60;2.53;;;18.70;1.00;;;;;;5021692;28;20792;-84
2022/09/03 00:07:38;;;;;;;3.23;2.13;;;18.70;1.00;;;;;;5022745;28;20481;-83
2022/09/03 00:10:10;;;;;;;3.43;2.00;;;18.70;1.00;;;;;;5021068;28;20469;-84
2022/09/03 00:12:42;;;;;;;7.10;2.13;;;18.60;10.30;;;;;;5021037;28;20809;-84
2022/09/03 00:15:14;;;;;;;8.50;2.60;;;18.60;1.70;;;;;;5037577;28;20908;-84
2022/09/03 00:17:53;;;;;;;6.50;2.20;;;18.50;2.10;;;;;;5020684;28;20429;-85
2022/09/03 00:20:21;;;;;;;14.90;3.10;;;18.50;2.40;;;;;;5022459;28;20407;-85
2022/09/03 00:22:50;;;;;;;11.27;2.23;;;18.40;2.40;;;;;;5020947;28;20442;-85
2022/09/03 00:25:43;;;;;;;10.00;2.50;;;18.40;3.20;;;;;;5021365;28;20419;-83
2022/09/03 00:28:17;;;;;;;4.90;2.17;;;18.30;3.00;;;;;;5021217;28;20418;-85
2022/09/03 00:30:46;;;;;;;4.43;2.23;;;18.30;3.30;;;;;;5020417;28;20552;-84
2022/09/03 00:33:21;;;;;;;4.50;2.00;;;18.30;3.80;;;;;;5020533;28;20920;-83
2022/09/03 00:36:01;;;;;;;9.40;2.73;;;18.20;4.00;;;;;;5020415;28;20424;-83
2022/09/03 00:38:28;;;;;;;7.00;2.23;;;18.20;4.10;;;;;;5021116;28;20824;-84
2022/09/03 00:41:32;;;;;;;5.07;2.23;;;18.20;4.40;;;;;;5021523;28;20422;-83
2022/09/03 00:44:17;;;;;;;4.93;1.77;;;18.20;4.50;;;;;;5020870;28;20433;-84
2022/09/03 00:46:55;;;;;;;4.80;2.50;;;18.10;4.80;;;;;;5019587;28;20463;-85
2022/09/03 00:49:41;;;;;;;4.80;2.20;;;18.10;5.50;;;;;;5020071;28;20465;-84
2022/09/03 00:52:24;;;;;;;2.70;2.23;;;18.10;6.00;;;;;;5019869;28;20414;-83
2022/09/03 00:55:21;;;;;;;3.43;2.00;;;18.00;6.40;;;;;;5018857;28;20422;-83
2022/09/03 00:58:29;;;;;;;3.40;1.70;;;18.00;7.10;;;;;;5019808;28;20413;-83
2022/09/03 01:00:55;;;;;;;3.37;1.70;;;18.00;7.10;;;;;;5020308;28;20460;-86
2022/09/03 01:03:52;;;;;;;6.30;1.90;;;17.90;7.50;;;;;;5020933;28;20458;-84
2022/09/03 01:06:43;;;;;;;2.97;2.27;;;17.90;7.60;;;;;;5021787;28;20175;-85
2022/09/03 01:09:18;;;;;;;8.50;2.20;;;17.90;8.10;;;;;;5019712;28;20473;-84
2022/09/03 01:11:58;;;;;;;6.30;2.30;;;17.90;8.40;;;;;;5021316;28;20422;-84
2022/09/03 01:14:52;;;;;;;3.97;1.73;;;17.80;8.80;;;;;;5018372;28;20504;-83
2022/09/03 01:17:24;;;;;;;5.57;2.10;;;17.80;8.70;;;;;;5021580;28;20438;-84
2022/09/03 01:19:55;;;;;;;5.60;2.07;;;17.80;9.30;;;;;;5024213;28;20497;-84
2022/09/03 01:22:52;;;;;;;7.30;1.97;;;17.70;9.60;;;;;;5022857;28;20948;-84
2022/09/03 01:25:58;;;;;;;8.33;2.17;;;17.70;9.70;;;;;;5024197;28;20485;-84
2022/09/03 01:28:41;;;;;;;9.80;2.63;;;17.70;10.30;;;;;;5022453;28;20422;-84
2022/09/03 01:31:32;;;;;;;11.43;2.63;;;17.70;10.20;;;;;;5022695;28;20996;-83
2022/09/03 01:34:26;;;;;;;20.03;3.43;;;17.60;10.40;;;;;;5018738;28;20480;-85
2022/09/03 01:37:37;;;;;;;5.20;2.80;;;17.60;10.50;;;;;;5018989;28;20417;-83
2022/09/03 01:40:37;;;;;;;9.67;2.37;;;17.60;10.90;;;;;;5008980;28;20461;-84
2022/09/03 01:43:21;;;;;;;9.53;2.53;;;17.60;11.70;;;;;;5018637;28;20503;-84
2022/09/03 01:46:13;;;;;;;5.87;2.53;;;17.50;12.20;;;;;;5018482;28;20426;-84
2022/09/03 01:49:04;;;;;;;9.43;2.73;;;17.50;12.30;;;;;;5021014;28;20512;-83
2022/09/03 01:51:31;;;;;;;5.77;2.20;;;17.50;13.10;;;;;;5020873;28;20467;-84
2022/09/03 01:54:16;;;;;;;12.17;2.60;;;17.50;13.20;;;;;;5021308;28;20944;-83
2022/09/03 01:56:58;;;;;;;7.90;3.20;;;17.40;13.50;;;;;;5021300;28;20407;-84
2022/09/03 01:59:41;;;;;;;9.17;2.50;;;17.40;13.90;;;;;;5020981;28;20418;-85
2022/09/03 02:02:36;;;;;;;8.23;3.10;;;17.40;14.30;;;;;;5019541;28;20468;-84
2022/09/03 02:05:07;;;;;;;8.33;2.80;;;17.30;14.90;;;;;;5020014;28;20428;-83
2022/09/03 02:07:39;;;;;;;12.37;3.00;;;17.30;15.80;;;;;;5019324;28;20941;-85
2022/09/03 02:10:10;;;;;;;12.43;3.20;;;17.30;15.90;;;;;;5021155;28;20457;-84
2022/09/03 02:12:38;;;;;;;14.63;2.83;;;17.20;15.80;;;;;;5019373;28;20472;-84
2022/09/03 02:15:13;;;;;;;7.13;3.13;;;17.20;16.80;;;;;;5018826;28;20431;-84
2022/09/03 02:17:41;;;;;;;10.30;3.43;;;17.20;17.00;;;;;;5021638;28;20394;-84
2022/09/03 02:20:18;;;;;;;20.03;2.97;;;17.20;17.40;;;;;;5020316;28;20458;-84
2022/09/03 02:22:44;;;;;;;12.10;3.37;;;17.20;17.70;;;;;;5019747;28;20942;-84
2022/09/03 02:25:10;;;;;;;7.40;2.53;;;17.20;19.30;;;;;;5019703;28;20429;-85
2022/09/03 02:27:37;;;;;;;9.87;2.30;;;17.10;18.50;;;;;;5019810;28;20440;-84
2022/09/03 02:30:04;;;;;;;6.67;2.90;;;17.10;18.80;;;;;;5021736;28;20506;-85
2022/09/03 02:32:30;;;;;;;7.90;3.03;;;17.10;19.20;;;;;;5020521;28;20540;-84
2022/09/03 02:34:56;;;;;;;7.57;2.63;;;17.10;19.80;;;;;;5020791;28;20417;-84
2022/09/03 02:37:22;;;;;;;4.53;2.40;;;17.10;19.90;;;;;;5019685;28;21031;-84
2022/09/03 02:39:50;;;;;;;11.50;2.77;;;17.10;20.40;;;;;;5018921;28;20461;-84
2022/09/03 02:42:17;;;;;;;5.33;2.23;;;17.10;20.60;;;;;;5019957;28;20449;-85
2022/09/03 02:44:58;;;;;;;5.10;2.33;;;17.10;21.00;;;;;;5020843;28;20437;-85
2022/09/03 02:47:30;;;;;;;6.33;2.87;;;17.10;22.20;;;;;;5022393;28;20433;-84
2022/09/03 02:49:55;;;;;;;9.80;3.17;;;17.00;21.80;;;;;;5022031;28;20480;-84
2022/09/03 02:52:21;;;;;;;7.10;2.80;;;17.10;22.00;;;;;;5021289;28;20446;-85
2022/09/03 02:54:46;;;;;;;11.57;2.87;;;17.00;22.30;;;;;;5020492;28;20190;-84
2022/09/03 02:57:16;;;;;;;8.53;2.67;;;17.00;21.90;;;;;;5022076;28;20207;-84
2022/09/03 02:59:44;;;;;;;5.47;2.50;;;17.00;22.90;;;;;;5021385;28;20269;-84
2022/09/03 03:02:14;;;;;;;6.57;2.37;;;17.00;23.60;;;;;;5020696;28;20429;-84
2022/09/03 03:04:39;;;;;;;6.80;3.00;;;17.00;24.00;;;;;;5020618;28;20516;-84
2022/09/03 03:07:06;;;;;;;6.30;2.83;;;17.00;23.80;;;;;;5021964;28;20460;-84
2022/09/03 03:09:31;;;;;;;7.80;2.97;;;17.00;25.00;;;;;;5022471;28;20720;-84
2022/09/03 03:11:57;;;;;;;8.23;2.77;;;17.00;24.90;;;;;;5020790;28;20422;-84
2022/09/03 03:14:23;;;;;;;6.37;2.57;;;17.00;25.40;;;;;;5021869;28;20177;-85
2022/09/03 03:16:49;;;;;;;9.90;3.10;;;17.00;25.50;;;;;;5021913;28;20178;-85
2022/09/03 03:19:15;;;;;;;11.33;2.23;;;17.00;25.40;;;;;;5021236;28;20343;-85
2022/09/03 03:21:40;;;;;;;10.63;2.93;;;16.90;25.50;;;;;;5022036;28;20901;-84
2022/09/03 03:24:06;;;;;;;10.13;2.70;;;17.00;26.20;;;;;;5022820;28;20305;-84
2022/09/03 03:26:40;;;;;;;3.43;2.47;;;17.00;26.60;;;;;;5022879;28;20183;-85
2022/09/03 03:29:06;;;;;;;6.60;2.50;;;17.00;26.40;;;;;;5026794;28;20467;-84
2022/09/03 03:31:32;;;;;;;6.73;2.60;;;17.00;26.80;;;;;;5025476;28;20447;-84
2022/09/03 03:34:00;;;;;;;7.67;2.13;;;17.00;27.30;;;;;;5024254;28;20202;-85
2022/09/03 03:36:29;;;;;;;6.17;2.37;;;17.00;27.50;;;;;;5024831;28;20424;-85
2022/09/03 03:38:57;;;;;;;8.40;2.30;;;17.00;27.80;;;;;;5024476;28;20421;-85
2022/09/03 03:41:33;;;;;;;5.90;2.70;;;17.00;28.40;;;;;;5024392;28;20451;-84
2022/09/03 03:44:02;;;;;;;2.80;2.10;;;17.10;28.70;;;;;;5025487;28;20432;-84
2022/09/03 03:46:31;;;;;;;7.57;2.73;;;17.00;28.70;;;;;;5026147;28;20414;-84
2022/09/03 03:48:57;;;;;;;7.80;2.57;;;17.00;29.30;;;;;;5023782;28;20529;-85
2022/09/03 03:51:23;;;;;;;11.27;2.57;;;17.00;29.60;;;;;;5026280;28;20443;-85
2022/09/03 03:53:48;;;;;;;6.20;1.80;;;17.00;30.00;;;;;;5024474;28;20479;-84
2022/09/03 03:56:15;;;;;;;6.47;2.10;;;17.10;30.40;;;;;;5024254;28;20210;-84
2022/09/03 03:58:42;;;;;;;7.97;2.20;;;17.10;30.40;;;;;;5024425;28;20687;-84
2022/09/03 04:01:09;;;;;;;5.10;2.30;;;17.10;30.90;;;;;;5025587;28;20416;-84
2022/09/03 04:03:35;;;;;;;5.57;2.20;;;17.10;31.20;;;;;;5024315;28;20823;-84
2022/09/03 04:06:03;;;;;;;5.00;2.90;;;17.10;31.60;;;;;;5023760;28;20433;-84
2022/09/03 04:08:29;;;;;;;4.53;2.30;;;17.10;31.80;;;;;;5023980;28;20437;-85
2022/09/03 04:10:59;;;;;;;10.43;2.93;;;17.10;31.90;;;;;;5023300;28;20457;-84
2022/09/03 04:13:31;;;;;;;7.53;2.13;;;17.10;32.20;;;;;;5025372;28;20465;-85
2022/09/03 04:16:08;;;;;;;3.57;2.17;;;17.10;32.80;;;;;;5025510;28;20431;-84
2022/09/03 04:18:35;;;;;;;9.63;2.30;;;17.10;32.80;;;;;;5024586;28;20406;-83
2022/09/03 04:21:06;;;;;;;6.97;2.50;;;17.10;33.60;;;;;;5024295;28;20431;-86
2022/09/03 04:23:34;;;;;;;6.60;2.73;;;17.10;33.50;;;;;;5025571;28;20449;-84
2022/09/03 04:26:00;;;;;;;4.73;2.10;;;17.10;33.20;;;;;;5022629;28;20569;-83
2022/09/03 04:28:26;;;;;;;6.53;2.50;;;17.10;33.60;;;;;;5023856;28;20439;-84
2022/09/03 04:30:52;;;;;;;13.53;2.10;;;17.10;34.20;;;;;;5024036;28;20512;-84
2022/09/03 04:33:18;;;;;;;7.30;3.00;;;17.10;34.40;;;;;;5024831;28;20543;-85
2022/09/03 04:35:44;;;;;;;3.10;1.90;;;17.20;34.80;;;;;;5024754;28;20423;-84
2022/09/03 04:38:10;;;;;;;6.43;2.17;;;17.20;34.60;;;;;;5024980;28;20426;-84
2022/09/03 04:40:36;;;;;;;10.60;2.27;;;17.20;34.70;;;;;;5022760;28;20182;-84
2022/09/03 04:43:02;;;;;;;6.03;2.87;;;17.20;33.90;;;;;;5022970;28;20653;-84
2022/09/03 04:45:28;;;;;;;6.23;2.40;;;17.20;34.60;;;;;;5022661;28;20422;-84
2022/09/03 04:48:01;;;;;;;5.50;1.90;;;17.20;34.40;;;;;;5022729;28;20425;-83
2022/09/03 04:50:40;;;;;;;;;;;;;;;;;;;;;
2022/09/03 04:53:06;;;;;;;4.13;2.27;;;17.30;34.90;;;;;;5024261;28;20555;-85
2022/09/03 04:55:37;;;;;;;3.60;1.70;;;17.30;35.30;;;;;;5023935;28;20430;-84
2022/09/03 04:58:03;;;;;;;5.63;2.50;;;17.30;35.40;;;;;;5023769;28;20163;-84
2022/09/03 05:00:29;;;;;;;8.10;2.47;;;17.40;48.30;;;;;;5022371;28;20436;-84
2022/09/03 05:03:01;;;;;;;4.50;1.90;;;17.40;35.80;;;;;;5023843;28;20810;-84
2022/09/03 05:05:26;;;;;;;3.03;1.90;;;17.40;35.10;;;;;;5024263;28;20265;-83
2022/09/03 05:07:52;;;;;;;9.57;2.20;;;17.50;35.30;;;;;;5024072;28;20418;-85
2022/09/03 05:10:21;;;;;;;7.70;2.27;;;17.60;35.90;;;;;;5022627;28;20257;-84
2022/09/03 05:12:48;;;;;;;3.20;2.00;;;17.60;35.00;;;;;;5022580;28;20265;-84
2022/09/03 05:15:14;;;;;;;7.43;2.67;;;17.60;35.20;;;;;;5023723;28;20418;-84
2022/09/03 05:17:40;;;;;;;9.00;2.33;;;17.70;35.30;;;;;;5022785;28;20429;-85
2022/09/03 05:20:07;;;;;;;4.97;2.00;;;17.70;35.00;;;;;;5023398;28;20243;-85
2022/09/03 05:22:33;;;;;;;3.40;1.90;;;17.70;35.20;;;;;;5023256;28;20195;-84
2022/09/03 05:24:59;;;;;;;8.67;2.27;;;17.80;35.40;;;;;;5022545;28;20454;-84
2022/09/03 05:27:24;;;;;;;8.60;2.10;;;17.80;35.20;;;;;;5023499;28;20421;-84
2022/09/03 05:30:00;;;;;;;4.20;2.10;;;17.90;35.60;;;;;;5023365;28;20206;-84
2022/09/03 05:32:27;;;;;;;6.83;2.60;;;18.00;35.30;;;;;;5023182;28;20205;-84
2022/09/03 05:34:53;;;;;;;2.10;1.60;;;18.00;35.40;;;;;;5024086;28;20410;-84
2022/09/03 05:37:18;;;;;;;10.67;3.13;;;18.10;35.50;;;;;;5023022;28;20466;-85
2022/09/03 05:39:44;;;;;;;5.90;2.00;;;18.20;35.30;;;;;;5023654;28;20183;-84
2022/09/03 05:42:11;;;;;;;6.77;2.60;;;18.30;35.60;;;;;;5021700;28;20197;-84
2022/09/03 05:44:37;;;;;;;6.93;2.40;;;20.40;42.20;;;;;;5017161;28;20211;-86
2022/09/03 05:47:03;;;;;;;4.63;2.73;;;24.50;50.50;;;;;;5013599;28;20944;-85
2022/09/03 05:49:32;;;;;;;4.80;1.67;;;28.10;55.60;;;;;;5011953;28;20476;-85
2022/09/03 05:52:00;;;;;;;5.50;1.80;;;31.10;57.90;;;;;;5012151;28;20630;-85
2022/09/03 05:54:25;;;;;;;6.93;1.83;;;33.40;57.40;;;;;;5013586;28;20425;-85
2022/09/03 05:56:51;;;;;;;5.33;1.90;;;33.80;50.70;;;;;;5013614;28;20410;-85
2022/09/03 05:59:17;;;;;;;7.63;1.80;;;35.70;47.50;;;;;;5013594;28;20186;-85
2022/09/03 06:01:45;;;;;;;4.30;1.83;;;37.50;42.70;;;;;;5012334;28;20187;-85
2022/09/03 06:04:13;;;;;;;5.90;1.87;;;39.00;35.40;;;;;;5012388;28;20203;-85
2022/09/03 06:06:43;;;;;;;3.87;1.83;;;40.10;28.70;;;;;;5013865;28;20421;-85
2022/09/03 06:09:16;;;;;;;2.97;1.13;;;41.30;23.30;;;;;;5013186;28;20406;-85
2022/09/03 06:11:43;;;;;;;4.13;1.30;;;42.20;18.70;;;;;;5012152;28;20429;-85
2022/09/03 06:14:11;;;;;;;4.83;1.40;;;43.10;14.20;;;;;;5013153;28;20808;-86
2022/09/03 06:16:48;;;;;;;7.57;1.80;;;43.70;9.60;;;;;;5013308;28;20484;-86
2022/09/03 06:19:13;;;;;;;1.93;1.20;;;44.50;5.60;;;;;;5012315;28;20426;-86
2022/09/03 06:21:44;;;;;;;2.20;1.33;;;44.90;1.00;;;;;;5011853;28;20791;-87
2022/09/03 06:24:14;;;;;;;5.80;1.57;;;45.20;1.00;;;;;;5013074;28;20213;-85
2022/09/03 06:26:39;;;;;;;1.97;1.40;;;40.60;1.00;;;;;;5013448;28;20493;-85
2022/09/03 06:29:05;;;;;;;3.40;1.40;;;38.90;1.00;;;;;;5012315;28;20453;-85
2022/09/03 06:31:36;;;;;;;3.17;1.60;;;40.40;1.00;;;;;;5013027;28;20175;-86
2022/09/03 06:34:02;;;;;;;2.50;1.40;;;42.10;1.00;;;;;;5011437;28;20450;-86
2022/09/03 06:36:27;;;;;;;2.23;1.30;;;43.40;1.00;;;;;;5012958;28;20446;-84
2022/09/03 06:38:55;;;;;;;2.70;1.30;;;44.70;1.00;;;;;;5012862;28;20206;-86
2022/09/03 06:41:26;;;;;;;3.63;1.10;;;45.40;1.00;;;;;;5012731;28;20305;-85
2022/09/03 06:44:01;;;;;;;1.60;1.30;;;46.00;1.00;;;;;;5011753;28;20441;-85
2022/09/03 06:46:29;;;;;;;3.07;1.20;;;43.70;1.00;;;;;;5013086;28;20421;-86
2022/09/03 06:48:58;;;;;;;1.40;1.10;;;44.50;1.00;;;;;;5011564;28;21019;-84
2022/09/03 06:51:26;;;;;;;1.97;1.10;;;45.40;1.00;;;;;;5011685;28;20473;-84
2022/09/03 06:53:58;;;;;;;2.93;1.10;;;46.40;1.00;;;;;;5012390;28;20442;-84
2022/09/03 06:56:27;;;;;;;2.53;1.20;;;45.60;1.00;;;;;;5011427;28;20434;-84
2022/09/03 06:58:55;;;;;;;3.20;1.60;;;44.90;1.00;;;;;;5011497;28;20434;-84
2022/09/03 07:01:24;;;;;;;2.50;1.33;;;45.80;1.00;;;;;;5010837;28;20441;-84
2022/09/03 07:03:56;;;;;;;3.73;1.17;;;47.30;1.00;;;;;;5012537;28;21003;-84
2022/09/03 07:06:23;;;;;;;2.60;1.20;;;48.20;1.00;;;;;;5011497;28;20793;-85
2022/09/03 07:08:49;;;;;;;8.87;1.40;;;44.80;1.00;;;;;;5010971;28;20430;-85
2022/09/03 07:11:18;;;;;;;2.10;1.10;;;44.20;1.00;;;;;;5012244;28;20453;-85
2022/09/03 07:13:50;;;;;;;3.07;1.30;;;45.60;1.00;;;;;;5012531;28;20567;-83
2022/09/03 07:16:21;;;;;;;3.07;1.77;;;46.70;1.00;;;;;;5011224;28;20413;-84
2022/09/03 07:18:48;;;;;;;2.27;1.10;;;47.30;1.00;;;;;;5011026;28;20424;-84
2022/09/03 07:21:16;;;;;;;1.77;1.33;;;47.20;1.00;;;;;;5012290;28;20417;-84
2022/09/03 07:23:42;;;;;;;1.70;1.27;;;47.60;1.00;;;;;;5010989;28;20444;-86
2022/09/03 07:26:11;;;;;;;2.10;1.00;;;47.70;1.00;;;;;;5012076;28;20908;-84
2022/09/03 07:28:38;;;;;;;5.47;1.40;;;48.00;1.00;;;;;;5012321;28;20968;-83
2022/09/03 07:31:10;;;;;;;2.27;1.53;;;46.80;1.00;;;;;;5010888;28;20449;-85
2022/09/03 07:33:39;;;;;;;3.00;1.60;;;47.10;1.00;;;;;;5012410;28;20440;-84
2022/09/03 07:36:11;;;;;;;2.47;1.20;;;47.90;1.00;;;;;;5012398;28;20417;-84
2022/09/03 07:38:36;;;;;;;3.40;1.03;;;47.80;1.00;;;;;;5012153;28;20398;-85
2022/09/03 07:41:05;;;;;;;2.67;1.47;;;47.10;1.00;;;;;;5011485;28;20486;-84
2022/09/03 07:43:39;;;;;;;2.63;1.20;;;47.20;1.00;;;;;;5012861;28;20203;-84
2022/09/03 07:46:05;;;;;;;3.50;1.60;;;44.40;1.00;;;;;;5015893;28;20866;-83
2022/09/03 07:48:31;;;;;;;1.83;1.50;;;45.70;1.00;;;;;;5014395;28;20936;-85
2022/09/03 07:51:00;;;;;;;3.10;1.20;;;46.30;1.00;;;;;;5012286;28;20527;-84
2022/09/03 07:53:28;;;;;;;2.60;1.10;;;46.30;1.00;;;;;;5010685;28;20202;-84
2022/09/03 07:56:04;;;;;;;3.00;1.20;;;46.90;1.00;;;;;;5010741;28;20432;-84
2022/09/03 07:58:30;;;;;;;3.33;1.00;;;47.50;1.00;;;;;;5010661;28;20428;-84
2022/09/03 08:00:57;;;;;;;4.07;1.20;;;46.90;1.00;;;;;;5010904;28;20426;-84
2022/09/03 08:03:23;;;;;;;3.53;1.47;;;47.40;1.00;;;;;;5010675;28;20437;-84
2022/09/03 08:05:49;;;;;;;1.50;1.27;;;48.10;1.00;;;;;;5011836;28;20425;-84
2022/09/03 08:08:14;;;;;;;1.77;1.10;;;48.10;1.00;;;;;;5011901;28;20213;-83
2022/09/03 08:10:41;;;;;;;2.00;0.97;;;48.40;1.00;;;;;;5011785;28;20224;-84
2022/09/03 08:13:06;;;;;;;3.10;1.33;;;48.50;1.00;;;;;;5011199;28;20209;-84
2022/09/03 08:15:33;;;;;;;1.77;1.13;;;48.10;1.00;;;;;;5015040;28;20409;-84
2022/09/03 08:18:02;;;;;;;4.03;1.23;;;48.40;1.00;;;;;;5014057;28;20187;-84
2022/09/03 08:20:28;;;;;;;5.10;1.00;;;49.20;1.00;;;;;;5014982;28;20413;-84
2022/09/03 08:23:02;;;;;;;10.23;1.47;;;49.60;1.00;;;;;;5014978;28;20509;-84
2022/09/03 08:25:28;;;;;;;2.43;1.00;;;49.50;1.00;;;;;;5013702;28;20177;-84
2022/09/03 08:27:57;;;;;;;1.70;1.13;;;49.30;1.00;;;;;;5013819;28;20471;-84
2022/09/03 08:30:24;;;;;;;1.30;0.97;;;49.30;1.00;;;;;;5014895;28;20888;-84
2022/09/03 08:32:49;;;;;;;3.00;1.30;;;49.20;1.00;;;;;;5013363;28;20437;-84
2022/09/03 08:35:15;;;;;;;1.67;1.07;;;48.70;1.00;;;;;;5016129;28;20432;-85
2022/09/03 08:37:40;;;;;;;1.40;1.10;;;47.90;1.00;;;;;;5016146;28;20171;-85
2022/09/03 08:40:07;;;;;;;2.17;1.57;;;47.50;1.00;;;;;;5016246;28;20210;-84
2022/09/03 08:42:45;;;;;;;3.97;2.20;;;46.70;1.00;;;;;;5014956;28;20199;-85
2022/09/03 08:45:20;;;;;;;5.03;1.37;;;46.30;1.00;;;;;;5013994;28;20545;-84
2022/09/03 08:48:05;;;;;;;2.97;1.17;;;46.70;1.00;;;;;;5014689;28;20419;-85
2022/09/03 08:50:37;;;;;;;3.97;1.50;;;46.80;1.00;;;;;;5014524;28;20460;-84
2022/09/03 08:53:38;;;;;;;3.40;1.10;;;46.60;1.00;;;;;;5013343;28;20437;-84
2022/09/03 08:56:09;;;;;;;6.90;1.43;;;45.90;1.00;;;;;;5017907;28;20426;-84
2022/09/03 08:58:42;;;;;;;4.50;1.40;;;46.20;1.00;;;;;;5013300;28;20468;-84
2022/09/03 09:01:37;;;;;;;3.73;0.93;;;46.80;1.00;;;;;;5018158;28;20493;-85
2022/09/03 09:04:03;;;;;;;1.97;1.03;;;47.30;1.00;;;;;;5018313;28;20923;-86
2022/09/03 09:06:49;;;;;;;2.90;1.10;;;47.70;1.00;;;;;;5013374;28;20465;-87
2022/09/03 09:09:43;;;;;;;4.40;1.50;;;47.90;1.00;;;;;;5014250;28;20178;-86
2022/09/03 09:12:33;;;;;;;3.03;1.30;;;47.70;1.00;;;;;;5013842;28;20433;-86
2022/09/03 09:14:59;;;;;;;3.27;1.30;;;47.60;1.00;;;;;;5014144;28;20433;-87
2022/09/03 09:17:58;;;;;;;3.33;1.30;;;47.20;1.00;;;;;;5013009;28;20818;-86
2022/09/03 09:20:51;;;;;;;4.23;1.20;;;47.20;1.00;;;;;;5013956;28;20600;-86
2022/09/03 09:23:32;;;;;;;2.30;1.10;;;46.70;1.00;;;;;;5012506;28;20473;-85
2022/09/03 09:26:03;;;;;;;2.53;1.33;;;46.70;1.00;;;;;;5012528;28;20414;-84
2022/09/03 09:28:34;;;;;;;3.10;1.17;;;46.60;1.00;;;;;;5014042;28;20481;-86
2022/09/03 09:31:01;;;;;;;3.93;1.10;;;45.80;1.00;;;;;;5013820;28;20527;-85
2022/09/03 09:33:31;;;;;;;1.70;1.20;;;45.50;1.00;;;;;;5012557;28;20433;-86
2022/09/03 09:36:07;;;;;;;4.30;1.33;;;45.00;1.00;;;;;;5013712;28;20421;-85
2022/09/03 09:38:36;;;;;;;5.13;1.33;;;45.10;1.00;;;;;;5014017;28;20804;-86
2022/09/03 09:41:15;;;;;;;3.70;1.40;;;44.90;1.00;;;;;;5013746;28;20754;-85
2022/09/03 09:43:42;;;;;;;1.97;1.10;;;45.10;1.00;;;;;;5012294;28;20445;-85
2022/09/03 09:46:12;;;;;;;6.47;1.43;;;45.00;1.00;;;;;;5013501;28;20425;-85
2022/09/03 09:48:52;;;;;;;3.73;1.40;;;44.90;1.00;;;;;;5012376;28;20504;-86
2022/09/03 09:51:19;;;;;;;3.63;1.50;;;45.00;1.00;;;;;;5013404;28;20768;-85
2022/09/03 09:53:45;;;;;;;3.43;1.43;;;45.70;1.00;;;;;;5012351;28;20536;-87
2022/09/03 09:56:24;;;;;;;1.60;1.20;;;46.50;1.00;;;;;;5012081;28;20441;-86
2022/09/03 09:59:04;;;;;;;1.77;1.30;;;46.70;1.00;;;;;;5012212;28;20695;-87
2022/09/03 10:01:30;;;;;;;5.03;1.30;;;46.90;1.00;;;;;;5014553;28;20426;-85
2022/09/03 10:04:09;;;;;;;2.87;1.57;;;46.80;1.00;;;;;;5013650;28;20436;-85
2022/09/03 10:06:52;;;;;;;4.10;1.70;;;46.60;1.00;;;;;;5013267;28;20485;-86
2022/09/03 10:09:22;;;;;;;4.50;1.33;;;46.10;1.00;;;;;;5011941;28;20897;-85
2022/09/03 10:12:26;;;;;;;3.03;1.70;;;44.90;1.00;;;;;;5011909;28;20518;-85
2022/09/03 10:15:06;;;;;;;4.53;1.17;;;44.50;1.00;;;;;;5012998;28;20405;-86
2022/09/03 10:17:51;;;;;;;4.87;1.60;;;44.20;1.00;;;;;;5012250;28;20939;-84
2022/09/03 10:20:39;;;;;;;4.00;1.30;;;44.40;1.00;;;;;;5011834;28;20460;-84
2022/09/03 10:23:24;;;;;;;2.90;1.30;;;44.40;1.00;;;;;;5011677;28;20440;-84
2022/09/03 10:26:07;;;;;;;5.80;1.60;;;44.80;1.00;;;;;;5013552;28;21020;-85
2022/09/03 10:28:40;;;;;;;3.37;1.80;;;44.70;1.00;;;;;;5014755;28;20504;-84
2022/09/03 10:31:28;;;;;;;3.00;1.50;;;43.40;1.00;;;;;;5013190;28;20453;-84
2022/09/03 10:34:00;;;;;;;3.77;1.43;;;41.60;1.00;;;;;;5011945;28;20440;-84
2022/09/03 10:36:50;;;;;;;4.80;1.30;;;40.80;1.00;;;;;;5021800;28;20492;-84
2022/09/03 10:40:03;;;;;;;5.40;1.40;;;41.40;1.00;;;;;;5012722;28;20409;-84
2022/09/03 10:42:46;;;;;;;5.63;1.50;;;40.30;1.00;;;;;;5012586;28;20456;-84
2022/09/03 10:45:18;;;;;;;2.17;1.37;;;38.70;1.00;;;;;;5014998;28;20774;-84
2022/09/03 10:47:59;;;;;;;3.23;1.70;;;37.80;1.00;;;;;;5014265;28;20497;-85
2022/09/03 10:50:27;;;;;;;3.40;1.40;;;37.80;1.00;;;;;;5015199;28;20453;-83
2022/09/03 10:53:18;;;;;;;5.20;1.90;;;37.60;1.00;;;;;;5016625;28;20952;-83
2022/09/03 10:55:59;;;;;;;2.60;1.60;;;37.00;1.00;;;;;;5016426;28;20471;-84
2022/09/03 10:58:36;;;;;;;3.37;1.97;;;36.10;1.00;;;;;;5017979;28;20917;-83
2022/09/03 11:01:13;;;;;;;3.67;2.10;;;35.70;1.00;;;;;;5017150;28;20421;-85
2022/09/03 11:03:49;;;;;;;3.30;1.80;;;35.30;1.00;;;;;;5018306;28;20437;-83
2022/09/03 11:06:23;;;;;;;3.40;1.77;;;35.20;1.00;;;;;;5016412;28;20433;-84
2022/09/03 11:09:30;;;;;;;6.83;1.57;;;35.70;1.00;;;;;;5017486;28;20767;-84
2022/09/03 11:12:20;;;;;;;2.67;1.90;;;35.40;1.00;;;;;;5005524;28;20418;-84
2022/09/03 11:14:52;;;;;;;11.70;1.80;;;36.40;1.00;;;;;;5013188;28;20456;-84
2022/09/03 11:17:28;;;;;;;3.53;1.60;;;38.00;1.00;;;;;;5011452;28;20817;-84
2022/09/03 11:20:15;;;;;;;2.70;1.37;;;39.90;1.00;;;;;;5012463;28;20488;-84
2022/09/03 11:22:44;;;;;;;3.53;1.73;;;41.20;1.00;;;;;;5012341;28;20443;-84
2022/09/03 11:25:12;;;;;;;4.80;1.67;;;42.00;1.00;;;;;;5010935;28;20418;-84
2022/09/03 11:27:41;;;;;;;4.40;1.73;;;42.80;1.00;;;;;;5010970;28;20436;-84
2022/09/03 11:30:22;;;;;;;3.00;1.20;;;43.10;1.00;;;;;;5012335;28;20488;-85
2022/09/03 11:32:55;;;;;;;2.80;1.30;;;43.10;1.00;;;;;;5011077;28;20492;-84
2022/09/03 11:35:38;;;;;;;1.70;1.43;;;42.70;1.00;;;;;;5013835;28;20464;-85
2022/09/03 11:38:04;;;;;;;2.10;1.63;;;42.20;1.00;;;;;;5011427;28;20417;-84
2022/09/03 11:40:56;;;;;;;2.27;1.40;;;40.50;1.00;;;;;;5012446;28;20421;-84
2022/09/03 11:43:29;;;;;;;3.83;1.67;;;40.40;1.00;;;;;;5011324;28;20752;-85
2022/09/03 11:46:10;;;;;;;3.93;1.63;;;41.00;1.00;;;;;;5012410;28;20413;-85
2022/09/03 11:48:42;;;;;;;4.30;1.60;;;41.70;1.00;;;;;;5012605;28;20448;-85
2022/09/03 11:51:32;;;;;;;2.20;1.40;;;41.90;1.00;;;;;;5016364;28;20442;-85
2022/09/03 11:54:23;;;;;;;4.97;1.37;;;42.20;1.00;;;;;;5014767;28;20430;-85
2022/09/03 11:56:50;;;;;;;1.70;1.40;;;42.10;1.00;;;;;;5014602;28;20513;-84
2022/09/03 11:59:23;;;;;;;1.70;1.60;;;41.50;1.00;;;;;;5014632;28;20422;-85
2022/09/03 12:01:51;;;;;;;8.47;1.73;;;41.30;1.00;;;;;;5016065;28;20770;-84
2022/09/03 12:04:17;;;;;;;8.43;1.87;;;40.90;1.00;;;;;;5014734;28;20434;-84
2022/09/03 12:07:20;;;;;;;4.23;1.73;;;40.80;1.00;;;;;;5016042;28;20807;-84
2022/09/03 12:10:13;;;;;;;5.57;1.77;;;40.60;1.00;;;;;;5014692;28;20460;-84
2022/09/03 12:12:58;;;;;;;3.70;1.43;;;40.20;1.00;;;;;;5015920;28;20516;-84
2022/09/03 12:16:02;;;;;;;2.73;1.27;;;40.20;1.00;;;;;;5016026;28;20399;-84
2022/09/03 12:18:33;;;;;;;2.73;1.87;;;40.50;1.00;;;;;;5014169;28;20409;-84
2022/09/03 12:21:02;;;;;;;15.87;2.40;;;40.40;1.00;;;;;;5014228;28;20456;-84
2022/09/03 12:23:29;;;;;;;5.90;1.77;;;40.20;1.00;;;;;;5014169;28;20440;-85
2022/09/03 12:25:56;;;;;;;3.80;1.70;;;40.30;1.00;;;;;;5014453;28;20790;-84
2022/09/03 12:28:23;;;;;;;4.37;1.50;;;40.00;1.00;;;;;;5015322;28;20418;-85
2022/09/03 12:30:52;;;;;;;2.83;1.47;;;39.70;1.00;;;;;;5014049;28;20462;-84
2022/09/03 12:33:22;;;;;;;3.07;1.67;;;40.00;1.00;;;;;;5015187;28;20430;-84
2022/09/03 12:35:58;;;;;;;2.37;1.70;;;40.00;1.00;;;;;;5013846;28;20417;-85
2022/09/03 12:38:25;;;;;;;3.93;1.67;;;39.90;1.00;;;;;;5015329;28;20446;-84
2022/09/03 12:40:51;;;;;;;2.10;1.87;;;40.00;1.00;;;;;;5014033;28;20438;-84
2022/09/03 12:43:17;;;;;;;2.20;1.97;;;39.50;1.00;;;;;;5014052;28;20957;-84
2022/09/03 12:45:45;;;;;;;7.13;2.07;;;38.90;1.00;;;;;;5013824;28;20425;-84
2022/09/03 12:48:15;;;;;;;3.30;1.90;;;38.50;1.00;;;;;;5015062;28;20187;-84
2022/09/03 12:50:42;;;;;;;2.27;1.60;;;38.40;1.00;;;;;;5013726;28;20575;-84
2022/09/03 12:53:12;;;;;;;3.60;2.00;;;38.50;1.00;;;;;;5014897;28;20568;-84
2022/09/03 12:55:43;;;;;;;1.87;1.70;;;38.50;1.00;;;;;;5013855;28;20420;-84
2022/09/03 12:58:17;;;;;;;3.77;1.90;;;38.50;1.00;;;;;;5013693;28;20401;-84
2022/09/03 13:01:10;;;;;;;3.33;1.90;;;38.50;1.00;;;;;;5014519;28;20897;-85
2022/09/03 13:03:56;;;;;;;1.97;1.50;;;38.50;1.00;;;;;;5011393;28;20445;-84
2022/09/03 13:06:28;;;;;;;2.17;1.83;;;38.90;1.00;;;;;;5015191;28;20484;-84
2022/09/03 13:09:00;;;;;;;1.90;1.70;;;39.20;1.00;;;;;;5014313;28;20414;-84
2022/09/03 13:11:28;;;;;;;3.00;1.87;;;39.40;1.00;;;;;;5016664;28;20465;-84
2022/09/03 13:14:05;;;;;;;7.57;1.57;;;39.10;1.00;;;;;;5016220;28;20426;-84
2022/09/03 13:16:36;;;;;;;2.40;1.80;;;38.80;1.00;;;;;;5013424;28;20414;-84
2022/09/03 13:19:32;;;;;;;1.87;1.73;;;39.00;1.00;;;;;;5013289;28;20472;-84
2022/09/03 13:22:21;;;;;;;1.90;1.80;;;38.80;1.00;;;;;;5014630;28;20908;-84
2022/09/03 13:25:03;;;;;;;7.50;1.97;;;38.50;1.00;;;;;;5014382;28;20395;-84
2022/09/03 13:27:34;;;;;;;2.10;1.90;;;38.60;1.00;;;;;;5014290;28;20394;-84